Time;durP1;ratioP1;P1;durP2;ratioP2;P2;SDS_P1;SDS_P2;PMS_P1;PMS_P2;Temp;Humidity;BMP_temperature;BMP_pressure;BME280_temperature;BME280_humidity;BME280_pressure;Samples;Min_cycle;Max_cycle;Signal;HPM_P1;HPM_P2
2022/07/05 00:00:32;;;;;;;0.90;0.90;;;27.30;53.30;;;;;;5045451;28;20768;-62
2022/07/05 00:02:59;;;;;;;0.90;0.90;;;27.40;53.40;;;;;;5045696;28;20482;-63
2022/07/05 00:05:26;;;;;;;0.85;0.85;;;27.30;53.30;;;;;;5044741;28;20276;-62
2022/07/05 00:07:53;;;;;;;0.70;0.70;;;27.30;53.30;;;;;;5046143;28;20071;-63
2022/07/05 00:10:20;;;;;;;0.80;0.80;;;27.30;53.30;;;;;;5045473;28;20133;-62
2022/07/05 00:12:47;;;;;;;0.82;0.77;;;27.30;53.30;;;;;;5030961;28;20073;-62
2022/07/05 00:15:14;;;;;;;0.65;0.65;;;27.30;53.30;;;;;;5024393;28;20442;-62
2022/07/05 00:17:42;;;;;;;0.95;0.95;;;27.30;53.30;;;;;;5025385;28;20080;-62
2022/07/05 00:20:09;;;;;;;0.82;0.82;;;27.30;53.30;;;;;;5025935;28;20107;-62
2022/07/05 00:22:36;;;;;;;1.00;1.00;;;27.30;53.30;;;;;;5023700;28;20137;-62
2022/07/05 00:25:04;;;;;;;0.80;0.80;;;27.30;53.30;;;;;;5025385;28;20140;-63
2022/07/05 00:27:31;;;;;;;1.00;1.00;;;27.30;53.30;;;;;;5025489;28;20477;-62
2022/07/05 00:29:58;;;;;;;0.85;0.85;;;27.30;53.30;;;;;;5030396;28;20040;-64
2022/07/05 00:32:25;;;;;;;0.68;0.68;;;27.30;53.30;;;;;;5031570;28;20449;-62
2022/07/05 00:34:53;;;;;;;0.90;0.90;;;27.30;53.40;;;;;;5023593;28;20129;-63
2022/07/05 00:37:20;;;;;;;0.50;0.50;;;27.30;53.30;;;;;;5045518;28;20065;-62
2022/07/05 00:39:47;;;;;;;0.70;0.70;;;27.30;53.30;;;;;;5044894;28;20080;-63
2022/07/05 00:42:14;;;;;;;0.80;0.80;;;27.30;53.30;;;;;;5045614;28;20497;-62
2022/07/05 00:44:42;;;;;;;0.80;0.80;;;27.30;53.30;;;;;;5044360;28;20507;-62
2022/07/05 00:47:12;;;;;;;0.63;0.63;;;27.30;53.30;;;;;;5045048;28;20263;-63
2022/07/05 00:49:40;;;;;;;0.80;0.80;;;27.30;53.30;;;;;;5044805;28;20135;-62
2022/07/05 00:52:08;;;;;;;0.90;0.90;;;27.30;53.40;;;;;;5045497;28;20045;-63
2022/07/05 00:54:46;;;;;;;0.70;0.70;;;27.30;53.30;;;;;;5044719;28;20055;-62
2022/07/05 00:57:14;;;;;;;0.68;0.68;;;27.30;53.30;;;;;;5045493;28;20103;-63
2022/07/05 00:59:41;;;;;;;0.63;0.63;;;27.20;53.30;;;;;;5044852;28;20594;-63
2022/07/05 01:02:08;;;;;;;0.70;0.70;;;27.30;53.40;;;;;;5044821;28;20087;-63
2022/07/05 01:04:36;;;;;;;0.70;0.70;;;27.20;53.30;;;;;;5044394;28;20048;-63
2022/07/05 01:07:05;;;;;;;0.52;0.52;;;27.30;53.40;;;;;;5047659;28;20534;-62
2022/07/05 01:09:35;;;;;;;0.43;0.43;;;27.20;53.40;;;;;;5049079;28;20053;-63
2022/07/05 01:12:03;;;;;;;0.93;0.93;;;27.20;53.30;;;;;;5048650;28;20041;-63
2022/07/05 01:14:31;;;;;;;0.85;0.85;;;27.30;53.40;;;;;;5049391;28;20045;-62
2022/07/05 01:16:59;;;;;;;1.38;0.80;;;27.20;53.30;;;;;;5048508;28;20665;-63
2022/07/05 01:19:27;;;;;;;1.08;1.08;;;27.20;53.30;;;;;;5048935;28;20052;-63
2022/07/05 01:21:54;;;;;;;0.82;0.82;;;27.20;53.30;;;;;;5049214;28;20107;-62
2022/07/05 01:24:22;;;;;;;0.70;0.70;;;27.30;53.40;;;;;;5042323;28;20053;-62
2022/07/05 01:26:50;;;;;;;0.77;0.77;;;27.20;53.30;;;;;;5027502;28;20049;-63
2022/07/05 01:29:18;;;;;;;0.75;0.75;;;27.30;53.40;;;;;;5028885;28;20095;-63
2022/07/05 01:31:45;;;;;;;0.60;0.60;;;27.20;53.30;;;;;;5028973;28;20459;-62
2022/07/05 01:34:13;;;;;;;0.70;0.70;;;27.20;53.30;;;;;;5028307;28;20049;-62
2022/07/05 01:36:40;;;;;;;0.50;0.50;;;27.20;53.30;;;;;;5027573;28;20107;-63
2022/07/05 01:39:08;;;;;;;0.70;0.70;;;27.20;53.30;;;;;;5029109;28;20557;-63
2022/07/05 01:41:36;;;;;;;0.50;0.50;;;27.20;53.30;;;;;;5028333;28;20052;-62
2022/07/05 01:44:04;;;;;;;0.70;0.70;;;27.20;53.30;;;;;;5028540;28;20104;-63
2022/07/05 01:46:33;;;;;;;0.85;0.85;;;27.30;53.40;;;;;;5028508;28;20112;-62
2022/07/05 01:49:04;;;;;;;0.70;0.70;;;27.20;53.30;;;;;;5028245;28;20238;-62
2022/07/05 01:51:42;;;;;;;0.60;0.60;;;27.20;53.30;;;;;;5028669;28;20085;-62
2022/07/05 01:54:10;;;;;;;0.90;0.90;;;27.20;53.30;;;;;;5028168;28;20386;-62
2022/07/05 01:56:38;;;;;;;0.63;0.63;;;27.20;53.30;;;;;;5026982;28;20099;-62
2022/07/05 01:59:07;;;;;;;0.80;0.80;;;27.20;53.30;;;;;;5027934;28;20049;-62
2022/07/05 02:01:36;;;;;;;0.73;0.73;;;27.20;53.30;;;;;;5027574;28;20049;-62
2022/07/05 02:04:05;;;;;;;0.68;0.68;;;27.20;53.30;;;;;;5028189;28;20269;-62
2022/07/05 02:06:33;;;;;;;0.63;0.63;;;27.20;53.30;;;;;;5028047;28;20414;-62
2022/07/05 02:09:03;;;;;;;0.60;0.60;;;27.20;53.30;;;;;;5027990;28;20497;-62
2022/07/05 02:11:30;;;;;;;0.70;0.70;;;27.20;53.30;;;;;;5026697;28;20399;-62
2022/07/05 02:14:00;;;;;;;1.10;1.10;;;27.20;53.30;;;;;;5027977;28;20068;-62
2022/07/05 02:16:28;;;;;;;0.70;0.70;;;27.20;53.30;;;;;;5027586;28;20077;-61
2022/07/05 02:18:56;;;;;;;0.70;0.70;;;27.20;53.30;;;;;;5026607;28;20104;-62
2022/07/05 02:21:23;;;;;;;0.70;0.70;;;27.20;53.30;;;;;;5028341;28;20045;-62
2022/07/05 02:23:51;;;;;;;0.60;0.60;;;27.20;53.30;;;;;;5029348;28;20041;-62
2022/07/05 02:26:18;;;;;;;0.50;0.50;;;27.20;53.30;;;;;;5047142;28;20498;-62
2022/07/05 02:28:45;;;;;;;0.60;0.60;;;27.20;53.30;;;;;;5046606;28;20128;-62
2022/07/05 02:31:12;;;;;;;0.68;0.68;;;27.20;53.40;;;;;;5047405;28;20095;-62
2022/07/05 02:33:40;;;;;;;0.65;0.65;;;27.20;53.30;;;;;;5047504;28;20517;-62
2022/07/05 02:36:09;;;;;;;0.70;0.70;;;27.20;53.30;;;;;;5047345;28;20128;-62
2022/07/05 02:38:37;;;;;;;0.70;0.70;;;27.20;53.40;;;;;;5047728;28;20375;-62
2022/07/05 02:41:06;;;;;;;0.40;0.40;;;27.20;53.40;;;;;;5047038;28;20563;-62
2022/07/05 02:43:36;;;;;;;0.85;0.85;;;27.20;53.40;;;;;;5045281;28;20045;-62
2022/07/05 02:46:04;;;;;;;0.52;0.52;;;27.20;53.30;;;;;;5047552;28;20198;-62
2022/07/05 02:48:33;;;;;;;0.85;0.85;;;27.20;53.30;;;;;;5045374;28;20130;-62
2022/07/05 02:51:00;;;;;;;0.60;0.60;;;27.20;53.40;;;;;;5046920;28;20053;-62
2022/07/05 02:53:28;;;;;;;0.70;0.70;;;27.20;53.30;;;;;;5047237;28;20177;-62
2022/07/05 02:55:55;;;;;;;0.73;0.73;;;27.20;53.30;;;;;;5046860;28;20548;-62
2022/07/05 02:58:22;;;;;;;0.65;0.65;;;27.20;53.30;;;;;;5047449;28;20130;-62
2022/07/05 03:00:49;;;;;;;0.73;0.73;;;27.20;53.30;;;;;;5047114;28;20345;-63
2022/07/05 03:03:17;;;;;;;0.70;0.70;;;27.20;53.30;;;;;;5046652;28;20143;-62
2022/07/05 03:05:44;;;;;;;0.50;0.50;;;27.20;53.30;;;;;;5046438;28;20634;-62
2022/07/05 03:08:11;;;;;;;0.50;0.50;;;27.20;53.30;;;;;;5039871;28;20080;-62
2022/07/05 03:10:39;;;;;;;1.15;0.90;;;27.20;53.30;;;;;;5031120;28;20074;-62
2022/07/05 03:13:07;;;;;;;0.60;0.60;;;27.20;53.30;;;;;;5046070;28;20049;-62
2022/07/05 03:15:34;;;;;;;0.80;0.80;;;27.20;53.20;;;;;;5044890;28;20076;-62
2022/07/05 03:18:01;;;;;;;0.98;0.98;;;27.20;53.30;;;;;;5045674;28;20056;-62
2022/07/05 03:20:29;;;;;;;0.73;0.73;;;27.20;53.20;;;;;;5044994;28;20045;-62
2022/07/05 03:22:56;;;;;;;0.45;0.45;;;27.20;53.20;;;;;;5045768;28;20099;-62
2022/07/05 03:25:23;;;;;;;0.60;0.60;;;27.20;53.20;;;;;;5046375;28;20582;-62
2022/07/05 03:27:50;;;;;;;0.50;0.50;;;27.20;53.20;;;;;;5044997;28;20049;-62
2022/07/05 03:30:17;;;;;;;0.73;0.73;;;27.20;53.20;;;;;;5045992;28;20057;-62
2022/07/05 03:32:44;;;;;;;0.60;0.60;;;27.20;53.10;;;;;;5046189;28;20107;-62
2022/07/05 03:35:12;;;;;;;0.90;0.80;;;27.30;53.20;;;;;;5046211;28;20080;-62
2022/07/05 03:37:39;;;;;;;0.80;0.80;;;27.20;53.00;;;;;;5040691;28;20072;-62
2022/07/05 03:40:07;;;;;;;0.70;0.70;;;27.30;53.10;;;;;;5044482;28;20052;-62
2022/07/05 03:42:35;;;;;;;0.40;0.40;;;27.30;53.00;;;;;;5046061;28;20451;-62
2022/07/05 03:45:03;;;;;;;0.82;0.82;;;27.30;53.00;;;;;;5039642;28;20053;-62
2022/07/05 03:47:31;;;;;;;0.60;0.60;;;27.30;52.90;;;;;;5036454;28;20100;-62
2022/07/05 03:49:58;;;;;;;0.90;0.70;;;27.30;52.90;;;;;;5025857;28;20597;-62
2022/07/05 03:52:25;;;;;;;0.80;0.80;;;27.30;52.90;;;;;;5025152;28;20136;-62
2022/07/05 03:54:53;;;;;;;1.00;0.60;;;27.30;52.90;;;;;;5033870;28;20418;-62
2022/07/05 03:57:21;;;;;;;0.65;0.65;;;27.30;52.80;;;;;;5042843;28;20135;-62
2022/07/05 03:59:48;;;;;;;0.60;0.60;;;27.40;52.80;;;;;;5045864;28;20049;-62
2022/07/05 04:02:15;;;;;;;0.73;0.70;;;27.40;52.80;;;;;;5045327;28;20582;-62
2022/07/05 04:04:42;;;;;;;0.50;0.50;;;27.40;52.80;;;;;;5045990;28;20048;-62
2022/07/05 04:07:09;;;;;;;0.73;0.73;;;27.40;52.80;;;;;;5045255;28;20053;-62
2022/07/05 04:09:37;;;;;;;0.60;0.60;;;27.40;52.70;;;;;;5043884;28;20127;-62
2022/07/05 04:12:04;;;;;;;0.63;0.63;;;27.40;52.70;;;;;;5045560;28;20472;-62
2022/07/05 04:14:32;;;;;;;0.50;0.50;;;27.40;52.70;;;;;;5045261;28;20049;-62
2022/07/05 04:16:59;;;;;;;0.40;0.40;;;27.40;52.70;;;;;;5045361;28;20110;-62
2022/07/05 04:19:27;;;;;;;0.55;0.55;;;27.40;52.70;;;;;;5045431;28;20486;-62
2022/07/05 04:21:54;;;;;;;1.20;0.75;;;27.40;52.60;;;;;;5044230;28;20067;-62
2022/07/05 04:24:21;;;;;;;0.40;0.40;;;27.40;52.60;;;;;;5043965;28;20473;-62
2022/07/05 04:26:48;;;;;;;0.70;0.70;;;27.40;52.60;;;;;;5044699;28;20586;-62
2022/07/05 04:29:16;;;;;;;1.02;0.80;;;27.50;52.60;;;;;;5045294;28;20135;-62
2022/07/05 04:31:43;;;;;;;0.82;0.82;;;27.50;52.50;;;;;;5045332;28;20096;-62
2022/07/05 04:34:10;;;;;;;0.93;0.90;;;27.50;52.50;;;;;;5044696;28;20079;-62
2022/07/05 04:36:40;;;;;;;0.68;0.68;;;27.50;52.40;;;;;;5044763;28;20521;-62
2022/07/05 04:39:07;;;;;;;;;;;27.60;52.40;;;;;;5045348;28;20041;-62
2022/07/05 04:41:34;;;;;;;0.60;0.60;;;27.60;52.30;;;;;;5044345;28;20010;-62
2022/07/05 04:44:02;;;;;;;0.68;0.68;;;27.60;52.20;;;;;;5042923;28;20083;-62
2022/07/05 04:46:29;;;;;;;0.50;0.50;;;27.70;52.10;;;;;;5044307;28;20579;-62
2022/07/05 04:48:57;;;;;;;0.75;0.50;;;27.70;52.00;;;;;;5043613;28;20444;-62
2022/07/05 04:51:24;;;;;;;0.75;0.75;;;27.70;51.90;;;;;;5045025;28;20063;-62
2022/07/05 04:53:51;;;;;;;0.70;0.70;;;27.80;51.90;;;;;;5044821;28;20052;-62
2022/07/05 04:56:18;;;;;;;0.47;0.47;;;27.80;51.70;;;;;;5044963;28;20045;-62
2022/07/05 04:58:45;;;;;;;1.45;0.70;;;27.90;51.60;;;;;;5038745;28;20805;-62
2022/07/05 05:01:12;;;;;;;0.60;0.60;;;27.90;51.60;;;;;;5034288;28;20080;-62
2022/07/05 05:03:40;;;;;;;0.80;0.80;;;27.90;51.50;;;;;;5044337;28;20333;-64
2022/07/05 05:06:07;;;;;;;0.60;0.60;;;28.00;51.40;;;;;;5041599;28;20041;-61
2022/07/05 05:08:34;;;;;;;1.00;0.50;;;27.90;51.50;;;;;;5037861;28;20075;-62
2022/07/05 05:11:01;;;;;;;0.55;0.55;;;27.80;51.60;;;;;;5046942;28;20041;-61
2022/07/05 05:13:28;;;;;;;1.00;0.95;;;27.70;51.90;;;;;;5046828;28;20547;-61
2022/07/05 05:15:55;;;;;;;0.77;0.77;;;27.50;52.10;;;;;;5047042;28;20060;-61
2022/07/05 05:18:26;;;;;;;0.60;0.60;;;27.30;52.60;;;;;;5044884;28;20052;-61
2022/07/05 05:20:54;;;;;;;0.73;0.73;;;27.10;53.00;;;;;;5044335;28;20056;-64
2022/07/05 05:23:22;;;;;;;0.90;0.90;;;27.00;53.20;;;;;;5037399;28;20490;-61
2022/07/05 05:25:50;;;;;;;0.63;0.63;;;26.80;53.30;;;;;;5031631;28;20130;-61
2022/07/05 05:28:17;;;;;;;0.57;0.57;;;26.50;53.40;;;;;;5038467;28;20468;-61
2022/07/05 05:30:44;;;;;;;1.02;0.63;;;26.30;53.50;;;;;;5043332;28;20076;-64
2022/07/05 05:33:11;;;;;;;0.70;0.70;;;26.10;53.70;;;;;;5038346;28;20102;-64
2022/07/05 05:35:38;;;;;;;0.90;0.90;;;25.80;53.80;;;;;;5040101;28;20041;-65
2022/07/05 05:38:07;;;;;;;1.38;0.90;;;25.60;54.00;;;;;;5051266;28;20536;-63
2022/07/05 05:40:34;;;;;;;0.80;0.80;;;25.40;54.20;;;;;;5038439;28;20115;-63
2022/07/05 05:43:01;;;;;;;1.00;1.00;;;25.20;54.60;;;;;;5037501;28;20068;-64
2022/07/05 05:45:28;;;;;;;1.02;1.02;;;24.90;54.40;;;;;;5037482;28;20098;-64
2022/07/05 05:47:57;;;;;;;4.82;1.60;;;24.80;54.50;;;;;;5045578;28;20068;-65
2022/07/05 05:50:27;;;;;;;1.70;1.60;;;24.60;55.40;;;;;;5044157;28;20107;-65
2022/07/05 05:52:55;;;;;;;2.00;1.90;;;24.40;55.40;;;;;;5045034;28;20037;-65
2022/07/05 05:55:24;;;;;;;1.63;1.52;;;24.30;55.50;;;;;;5045349;28;20635;-65
2022/07/05 05:57:52;;;;;;;2.75;1.50;;;24.00;55.70;;;;;;5042135;28;20045;-65
2022/07/05 06:00:21;;;;;;;4.95;1.90;;;23.90;56.20;;;;;;5041004;28;20061;-65
2022/07/05 06:02:49;;;;;;;1.83;1.60;;;23.80;55.50;;;;;;5043559;28;20137;-62
2022/07/05 06:05:17;;;;;;;2.00;1.67;;;23.60;56.20;;;;;;5035904;28;20048;-63
2022/07/05 06:07:50;;;;;;;3.42;1.42;;;23.50;56.40;;;;;;5041331;28;20045;-63
2022/07/05 06:10:21;;;;;;;4.22;1.98;;;23.30;56.60;;;;;;5043803;28;20045;-62
2022/07/05 06:12:50;;;;;;;3.00;1.60;;;23.10;57.80;;;;;;5045971;28;20489;-62
2022/07/05 06:15:17;;;;;;;2.38;2.00;;;23.00;58.40;;;;;;5049656;28;20107;-62
2022/07/05 06:17:45;;;;;;;5.18;1.83;;;23.00;58.70;;;;;;5045005;28;20099;-61
2022/07/05 06:20:15;;;;;;;1.60;1.50;;;22.90;59.20;;;;;;5040878;28;20799;-61
2022/07/05 06:22:43;;;;;;;1.85;1.75;;;22.90;59.60;;;;;;5042080;28;20521;-61
2022/07/05 06:25:10;;;;;;;2.05;1.85;;;22.90;59.50;;;;;;5041700;28;20555;-64
2022/07/05 06:27:59;;;;;;;2.13;1.90;;;22.80;59.80;;;;;;5047603;28;20717;-63
2022/07/05 06:30:31;;;;;;;5.20;2.25;;;22.80;60.00;;;;;;5039790;28;20099;-64
2022/07/05 06:32:58;;;;;;;3.60;1.50;;;22.80;60.50;;;;;;5040874;28;20052;-65
2022/07/05 06:35:26;;;;;;;2.50;1.85;;;22.70;61.00;;;;;;5047612;28;20049;-63
2022/07/05 06:38:00;;;;;;;6.00;2.13;;;22.70;60.80;;;;;;5047107;28;20048;-63
2022/07/05 06:40:34;;;;;;;2.70;1.65;;;22.70;61.40;;;;;;5042410;28;20067;-62
2022/07/05 06:43:14;;;;;;;2.20;2.00;;;22.70;61.90;;;;;;5042699;28;20040;-65
2022/07/05 06:45:41;;;;;;;1.88;1.60;;;22.60;62.30;;;;;;5043092;28;20130;-64
2022/07/05 06:48:10;;;;;;;3.33;1.70;;;22.70;62.50;;;;;;5038638;28;20146;-63
2022/07/05 06:50:41;;;;;;;2.03;1.70;;;22.70;62.50;;;;;;5039700;28;20106;-63
2022/07/05 06:53:08;;;;;;;3.28;1.80;;;22.80;62.40;;;;;;5044781;28;20052;-65
2022/07/05 06:55:36;;;;;;;3.97;1.95;;;22.80;62.60;;;;;;5071210;28;20091;-64
2022/07/05 06:58:07;;;;;;;2.05;1.40;;;22.80;62.40;;;;;;5044217;28;20099;-66
2022/07/05 07:00:41;;;;;;;1.95;1.73;;;22.80;62.80;;;;;;5041360;28;20041;-66
2022/07/05 07:03:31;;;;;;;2.95;1.88;;;22.80;63.30;;;;;;5033319;28;20052;-65
2022/07/05 07:06:19;;;;;;;2.25;1.92;;;22.80;62.90;;;;;;5036424;28;20481;-65
2022/07/05 07:11:33;;;;;;;7.05;1.90;;;22.80;62.90;;;;;;5042836;28;20040;-66
2022/07/05 07:14:01;;;;;;;6.00;1.90;;;22.80;63.20;;;;;;5054789;28;20567;-67
2022/07/05 07:16:28;;;;;;;4.35;2.05;;;22.80;63.70;;;;;;5041347;28;20544;-66
2022/07/05 07:18:56;;;;;;;4.75;1.92;;;22.70;64.00;;;;;;5042452;28;20094;-65
2022/07/05 07:21:39;;;;;;;5.53;2.50;;;22.60;64.80;;;;;;5041612;28;20044;-65
2022/07/05 07:24:07;;;;;;;5.32;2.00;;;22.50;65.50;;;;;;5044849;28;20565;-65
2022/07/05 07:27:02;;;;;;;5.05;2.53;;;22.50;65.50;;;;;;5039139;28;20068;-65
2022/07/05 07:29:22;;;;;;;3.30;2.05;;;22.60;65.10;;;;;;5040277;28;20696;-65
2022/07/05 07:31:49;;;;;;;3.22;2.05;;;22.50;64.60;;;;;;5040472;28;20048;-65
2022/07/05 07:34:17;;;;;;;3.75;2.25;;;22.40;65.40;;;;;;5042687;28;20140;-65
2022/07/05 07:36:44;;;;;;;3.38;2.45;;;22.40;65.40;;;;;;5045382;28;20516;-64
2022/07/05 07:39:11;;;;;;;3.10;1.80;;;22.30;66.20;;;;;;5043676;28;20445;-65
2022/07/05 07:41:39;;;;;;;6.75;2.15;;;22.30;66.50;;;;;;5041717;28;20061;-65
2022/07/05 07:44:07;;;;;;;2.50;2.15;;;22.30;66.60;;;;;;5041879;28;20503;-65
2022/07/05 07:46:34;;;;;;;2.92;1.90;;;22.30;66.80;;;;;;5040841;28;20044;-65
2022/07/05 07:49:02;;;;;;;7.22;2.35;;;22.20;66.80;;;;;;5041573;28;20095;-66
2022/07/05 07:51:30;;;;;;;4.25;2.38;;;22.30;66.30;;;;;;5041049;28;20111;-65
2022/07/05 07:53:57;;;;;;;2.20;2.00;;;22.30;66.30;;;;;;5037086;28;20060;-66
2022/07/05 07:56:30;;;;;;;2.72;1.90;;;22.30;66.10;;;;;;5039146;28;20053;-64
2022/07/05 07:58:58;;;;;;;3.50;2.13;;;22.30;66.40;;;;;;5037332;28;20106;-64
2022/07/05 08:01:25;;;;;;;5.00;2.00;;;22.30;65.90;;;;;;5038008;28;20061;-65
2022/07/05 08:03:52;;;;;;;2.63;2.38;;;22.30;66.20;;;;;;5040960;28;20049;-65
2022/07/05 08:06:21;;;;;;;2.83;2.63;;;22.40;65.80;;;;;;5031584;28;20049;-64
2022/07/05 08:08:48;;;;;;;4.38;2.10;;;22.40;65.50;;;;;;5036698;28;20044;-64
2022/07/05 08:11:15;;;;;;;2.95;2.00;;;22.40;65.00;;;;;;5041800;28;20453;-65
2022/07/05 08:13:43;;;;;;;2.63;2.03;;;22.40;64.90;;;;;;5042345;28;20095;-67
2022/07/05 08:16:11;;;;;;;3.22;2.47;;;22.40;65.20;;;;;;5040949;28;20132;-66
2022/07/05 08:21:35;;;;;;;3.83;2.05;;;22.20;65.80;;;;;;5044666;28;20102;-67
2022/07/05 08:24:07;;;;;;;1.92;1.65;;;22.10;65.70;;;;;;5040223;28;20076;-67
2022/07/05 08:26:36;;;;;;;3.15;2.28;;;22.00;66.40;;;;;;5041593;28;20045;-68
2022/07/05 08:29:07;;;;;;;2.15;1.95;;;22.00;66.40;;;;;;5042180;28;20056;-68
2022/07/05 08:31:39;;;;;;;3.55;2.10;;;22.10;66.40;;;;;;5041948;28;20044;-68
2022/07/05 08:34:07;;;;;;;4.55;2.50;;;22.10;66.50;;;;;;5042102;28;20045;-69
2022/07/05 08:36:34;;;;;;;5.55;2.13;;;22.10;66.40;;;;;;5036465;28;20512;-68
2022/07/05 08:39:03;;;;;;;4.25;1.90;;;22.10;66.00;;;;;;5039090;28;20416;-67
2022/07/05 08:41:31;;;;;;;3.88;1.67;;;22.20;66.40;;;;;;5043282;28;20048;-68
2022/07/05 08:44:02;;;;;;;6.07;1.90;;;22.20;66.30;;;;;;5038468;28;20444;-68
2022/07/05 08:46:32;;;;;;;6.25;2.05;;;22.20;65.60;;;;;;5040384;28;20117;-68
2022/07/05 08:49:02;;;;;;;2.35;1.98;;;22.20;65.90;;;;;;5042620;28;20044;-68
2022/07/05 08:51:39;;;;;;;3.63;1.98;;;22.20;65.70;;;;;;5035921;28;20413;-67
2022/07/05 08:54:09;;;;;;;7.68;2.42;;;22.20;66.00;;;;;;5035343;28;20044;-68
2022/07/05 08:56:37;;;;;;;8.93;3.00;;;22.10;65.70;;;;;;5037828;28;20059;-67
2022/07/05 08:59:24;;;;;;;6.22;2.38;;;22.00;66.50;;;;;;5043765;28;20053;-67
2022/07/05 09:01:53;;;;;;;4.18;2.08;;;22.00;66.90;;;;;;5045988;28;20048;-67
2022/07/05 09:04:23;;;;;;;2.30;2.10;;;22.00;67.20;;;;;;5034785;28;20050;-67
2022/07/05 09:06:53;;;;;;;;;;;22.00;67.50;;;;;;5040227;28;20089;-68
2022/07/05 09:09:21;;;;;;;2.88;2.53;;;22.00;67.20;;;;;;5038365;28;19928;-68
2022/07/05 09:11:48;;;;;;;3.22;2.22;;;22.00;66.70;;;;;;5038342;28;20049;-68
2022/07/05 09:14:35;;;;;;;4.72;2.15;;;22.10;67.10;;;;;;5040328;28;20084;-68
2022/07/05 09:17:04;;;;;;;7.88;2.95;;;22.10;66.60;;;;;;5040567;28;20045;-67
2022/07/05 09:19:32;;;;;;;1.83;1.70;;;22.10;66.60;;;;;;5035646;28;20110;-67
2022/07/05 09:22:04;;;;;;;2.03;1.88;;;22.10;66.50;;;;;;5042506;28;20102;-67
2022/07/05 09:24:31;;;;;;;2.15;1.95;;;22.00;66.30;;;;;;5039478;28;20045;-67
2022/07/05 09:27:03;;;;;;;1.95;1.75;;;22.00;66.50;;;;;;5042647;28;20467;-67
2022/07/05 09:29:31;;;;;;;4.50;2.13;;;22.00;66.20;;;;;;5043707;28;20060;-67
2022/07/05 09:32:30;;;;;;;1.80;1.70;;;22.00;65.30;;;;;;5043955;28;20045;-67
2022/07/05 09:34:58;;;;;;;2.25;2.03;;;22.00;65.70;;;;;;5044592;28;20113;-65
2022/07/05 09:37:44;;;;;;;1.83;1.58;;;22.00;65.80;;;;;;5041709;28;20053;-64
2022/07/05 09:40:11;;;;;;;1.60;1.50;;;22.00;65.20;;;;;;5041082;28;20115;-65
2022/07/05 09:42:46;;;;;;;7.70;1.70;;;22.00;65.10;;;;;;5039821;28;20060;-63
2022/07/05 09:45:23;;;;;;;2.30;1.90;;;22.10;64.60;;;;;;5041780;28;20041;-65
2022/07/05 09:47:53;;;;;;;4.82;1.92;;;22.10;64.20;;;;;;5045464;28;20102;-65
2022/07/05 09:50:41;;;;;;;2.92;1.80;;;22.20;64.80;;;;;;5041129;28;21983;-64
2022/07/05 09:53:47;;;;;;;1.80;1.48;;;22.30;64.60;;;;;;5038677;28;20085;-65
2022/07/05 09:56:15;;;;;;;2.35;1.50;;;22.30;64.00;;;;;;5042554;28;20102;-66
2022/07/05 09:58:42;;;;;;;2.65;1.27;;;22.40;63.70;;;;;;5042609;28;20123;-65
2022/07/05 10:01:27;;;;;;;2.55;1.50;;;22.50;63.50;;;;;;5040278;28;20552;-67
2022/07/05 10:03:57;;;;;;;1.45;1.35;;;22.50;63.20;;;;;;5042296;28;20045;-65
2022/07/05 10:06:26;;;;;;;1.65;1.55;;;22.60;63.20;;;;;;5043800;28;20049;-65
2022/07/05 10:08:54;;;;;;;3.35;1.42;;;22.70;63.60;;;;;;5039696;28;20049;-65
2022/07/05 10:11:29;;;;;;;1.95;1.52;;;22.70;63.20;;;;;;5043266;28;21948;-65
2022/07/05 10:13:58;;;;;;;3.05;1.50;;;22.80;63.20;;;;;;5044145;28;20049;-65
2022/07/05 10:16:26;;;;;;;2.67;1.65;;;22.80;63.30;;;;;;5040549;28;20060;-65
2022/07/05 10:18:56;;;;;;;2.10;1.65;;;22.90;62.70;;;;;;5043403;28;20042;-65
2022/07/05 10:21:26;;;;;;;2.08;1.48;;;22.90;62.50;;;;;;5049175;28;20045;-65
2022/07/05 10:23:55;;;;;;;2.08;1.67;;;23.00;62.20;;;;;;5046195;28;20674;-64
2022/07/05 10:26:24;;;;;;;1.95;1.38;;;23.00;62.10;;;;;;5041837;28;20048;-64
2022/07/05 10:28:52;;;;;;;2.67;1.90;;;23.10;62.20;;;;;;5043531;28;20511;-64
2022/07/05 10:31:30;;;;;;;1.95;1.75;;;23.10;61.90;;;;;;5036056;28;20049;-65
2022/07/05 10:34:07;;;;;;;3.78;1.73;;;23.10;62.20;;;;;;5043996;28;20097;-64
2022/07/05 10:36:54;;;;;;;1.58;1.48;;;23.20;62.40;;;;;;5044889;28;20507;-65
2022/07/05 10:39:25;;;;;;;1.45;1.30;;;23.20;62.10;;;;;;5049158;28;20490;-65
2022/07/05 10:41:54;;;;;;;1.73;1.50;;;23.30;62.30;;;;;;5040504;28;20122;-64
2022/07/05 10:44:33;;;;;;;1.85;1.33;;;23.30;62.10;;;;;;5043439;28;20088;-64
2022/07/05 10:47:11;;;;;;;1.45;1.42;;;23.40;61.80;;;;;;5043988;28;20053;-64
2022/07/05 10:49:39;;;;;;;1.95;1.85;;;23.50;61.80;;;;;;5062205;28;20060;-65
2022/07/05 10:52:24;;;;;;;1.67;1.58;;;23.60;61.60;;;;;;5041215;28;20053;-64
2022/07/05 10:55:22;;;;;;;4.78;1.98;;;23.60;61.00;;;;;;5037602;28;20060;-64
2022/07/05 10:58:23;;;;;;;1.73;1.63;;;23.70;60.80;;;;;;5038808;28;20047;-64
2022/07/05 11:01:30;;;;;;;2.05;1.63;;;23.80;60.60;;;;;;5037176;28;20056;-64
2022/07/05 11:04:15;;;;;;;2.13;1.60;;;23.80;60.70;;;;;;5042443;28;20052;-64
2022/07/05 11:06:45;;;;;;;2.35;1.92;;;23.80;60.70;;;;;;5036701;28;20398;-64
2022/07/05 11:09:16;;;;;;;2.15;1.90;;;23.90;60.70;;;;;;5038495;28;20664;-63
2022/07/05 11:11:47;;;;;;;2.83;2.25;;;23.90;60.20;;;;;;5039155;28;20045;-63
2022/07/05 11:14:37;;;;;;;2.92;1.73;;;23.90;60.30;;;;;;5036539;28;20052;-65
2022/07/05 11:17:22;;;;;;;4.53;1.98;;;23.90;60.20;;;;;;5040633;28;20129;-64
2022/07/05 11:20:14;;;;;;;1.88;1.77;;;23.90;60.10;;;;;;5040242;28;20274;-65
2022/07/05 11:23:03;;;;;;;3.28;1.70;;;24.00;60.20;;;;;;5039141;28;20053;-64
2022/07/05 11:25:33;;;;;;;3.85;1.83;;;24.00;60.40;;;;;;5038993;28;20584;-64
2022/07/05 11:28:12;;;;;;;3.60;1.80;;;24.00;60.20;;;;;;5039222;28;20045;-62
2022/07/05 11:30:48;;;;;;;2.13;1.60;;;24.00;60.60;;;;;;5041268;28;20045;-63
2022/07/05 11:33:39;;;;;;;2.15;1.40;;;24.00;60.40;;;;;;5058769;28;20410;-62
2022/07/05 11:36:21;;;;;;;1.42;1.33;;;24.10;60.30;;;;;;5040456;28;20502;-62
2022/07/05 11:39:10;;;;;;;2.20;1.30;;;24.10;60.50;;;;;;5057665;28;20045;-62
2022/07/05 11:41:42;;;;;;;3.95;1.65;;;24.10;60.10;;;;;;5038004;28;20057;-62
2022/07/05 11:44:10;;;;;;;5.00;1.83;;;24.10;60.30;;;;;;5039987;28;20409;-63
2022/07/05 11:46:38;;;;;;;2.13;1.90;;;24.10;60.40;;;;;;5041025;28;20045;-65
2022/07/05 11:49:20;;;;;;;3.63;1.77;;;24.10;60.60;;;;;;5038261;28;20056;-63
2022/07/05 11:51:56;;;;;;;2.58;1.88;;;24.20;60.90;;;;;;5039439;28;20049;-63
2022/07/05 11:54:24;;;;;;;2.08;1.88;;;24.20;60.80;;;;;;5041971;28;20454;-62
2022/07/05 11:56:53;;;;;;;1.65;1.55;;;24.20;60.90;;;;;;5040325;28;20076;-63
2022/07/05 11:59:21;;;;;;;3.80;2.25;;;24.20;60.80;;;;;;5040246;28;20041;-62
2022/07/05 12:01:50;;;;;;;2.47;1.50;;;24.20;60.40;;;;;;5038384;28;20509;-63
2022/07/05 12:04:29;;;;;;;3.10;1.35;;;24.30;60.30;;;;;;5037365;28;20049;-63
2022/07/05 12:06:58;;;;;;;1.67;1.57;;;24.30;60.00;;;;;;5039903;28;21544;-62
2022/07/05 12:09:27;;;;;;;2.20;1.45;;;24.30;59.90;;;;;;5044415;28;20298;-63
2022/07/05 12:14:51;;;;;;;1.75;1.65;;;24.30;59.90;;;;;;5039556;28;20498;-62
2022/07/05 12:17:20;;;;;;;1.70;1.60;;;24.30;59.70;;;;;;5039146;28;20049;-63
2022/07/05 12:19:53;;;;;;;2.78;1.40;;;24.30;59.60;;;;;;5041269;28;20843;-64
2022/07/05 12:22:29;;;;;;;1.73;1.63;;;24.40;60.00;;;;;;5039557;28;20066;-63
2022/07/05 12:24:58;;;;;;;2.42;1.63;;;24.40;59.60;;;;;;5037596;28;20704;-64
2022/07/05 12:27:27;;;;;;;3.35;1.60;;;24.40;59.40;;;;;;5034159;28;20057;-63
2022/07/05 12:29:55;;;;;;;2.00;1.83;;;24.40;59.40;;;;;;5054702;28;20077;-63
2022/07/05 12:32:23;;;;;;;2.25;1.20;;;24.40;59.30;;;;;;5042212;28;20075;-63
2022/07/05 12:34:50;;;;;;;1.80;1.70;;;24.40;59.10;;;;;;5039834;28;20559;-63
2022/07/05 12:37:24;;;;;;;1.20;1.20;;;24.40;59.10;;;;;;5038832;28;20149;-63
2022/07/05 12:40:03;;;;;;;2.25;1.25;;;24.40;58.90;;;;;;5038873;28;20132;-64
2022/07/05 12:42:36;;;;;;;1.60;1.48;;;24.40;58.90;;;;;;5036172;28;20488;-63
2022/07/05 12:45:10;;;;;;;2.35;1.30;;;24.40;59.10;;;;;;5036918;28;20490;-64
2022/07/05 12:47:53;;;;;;;1.55;1.45;;;24.40;59.00;;;;;;5036436;28;21605;-61
2022/07/05 12:50:28;;;;;;;1.58;1.48;;;24.40;59.10;;;;;;5038672;28;20156;-63
2022/07/05 12:58:57;;;;;;;1.27;1.17;;;24.50;59.00;;;;;;5038118;28;20049;-63
2022/07/05 13:01:27;;;;;;;2.55;1.60;;;24.50;59.00;;;;;;5020750;28;20555;-64
2022/07/05 13:04:00;;;;;;;1.50;1.40;;;24.50;59.00;;;;;;5033925;28;20044;-64
2022/07/05 13:06:51;;;;;;;1.25;1.20;;;24.60;59.10;;;;;;5038995;28;20052;-63
2022/07/05 13:09:35;;;;;;;1.42;1.30;;;24.50;59.10;;;;;;5034820;28;20646;-64
2022/07/05 13:12:24;;;;;;;3.58;1.70;;;24.50;59.30;;;;;;5038151;28;20089;-64
2022/07/05 13:14:53;;;;;;;4.25;1.30;;;24.60;59.40;;;;;;5041680;28;20053;-64
2022/07/05 13:17:22;;;;;;;1.67;1.58;;;24.60;59.20;;;;;;5038192;28;20098;-64
2022/07/05 13:19:51;;;;;;;1.42;1.38;;;24.60;59.20;;;;;;5040680;28;20049;-63